HEMA

Marsa Alam International Airport

Marsa Alam, Egypt
METAR HEMA 222100Z 32010KT CAVOK 23/10 Q1012 NOSIG
Observed Flight Rules
Apr-22 @ 21:00 UTC (37 minutes ago) Visual Flight Rules
Wind Visibility Clouds
320° at 10 knots 10,000+ meters
  • Clear skies
Temperatures Readings
Current 23°C / 73°F
Dewpoint 10°C / 50°F
Humidity 44%
Altimeter 29.88" Hg
Pressure 1012 hPa
Elevation 77
METAR HEMA 222100Z 32010KT CAVOK 23/10 Q1012 NOSIG
Observed Flight Rules
Apr-22 @ 21:00 UTC
(37 minutes ago)
VFR
Wind Visibility
320° at 10 knots 10,000+ meters
Clouds
  • Clear skies
Temperature Dewpoint
23°C / 73°F 10°C / 50°F
Humidity Altimeter Pressure
44% 29.88" Hg 1012 hPa